sensor_id;sensor_type;location;lat;lon;timestamp;temperature;humidity
62916;DHT22;49010;51.230;-2.306;2022-08-30T00:02:20;17.80;64.20
62916;DHT22;49010;51.230;-2.306;2022-08-30T00:06:06;17.80;64.30
62916;DHT22;49010;51.230;-2.306;2022-08-30T00:09:48;17.70;64.50
62916;DHT22;49010;51.230;-2.306;2022-08-30T00:13:30;17.70;64.50
62916;DHT22;49010;51.230;-2.306;2022-08-30T00:17:12;17.70;64.80
62916;DHT22;49010;51.230;-2.306;2022-08-30T00:20:54;17.60;64.90
62916;DHT22;49010;51.230;-2.306;2022-08-30T00:24:36;17.60;64.90
62916;DHT22;49010;51.230;-2.306;2022-08-30T00:28:19;17.50;65.20
62916;DHT22;49010;51.230;-2.306;2022-08-30T00:32:01;17.40;65.40
62916;DHT22;49010;51.230;-2.306;2022-08-30T00:35:43;17.40;65.60
62916;DHT22;49010;51.230;-2.306;2022-08-30T00:39:25;17.40;66.00
62916;DHT22;49010;51.230;-2.306;2022-08-30T00:43:12;17.30;66.00
62916;DHT22;49010;51.230;-2.306;2022-08-30T00:46:55;17.20;66.40
62916;DHT22;49010;51.230;-2.306;2022-08-30T00:50:41;17.20;66.60
62916;DHT22;49010;51.230;-2.306;2022-08-30T00:54:24;17.20;66.90
62916;DHT22;49010;51.230;-2.306;2022-08-30T00:58:09;17.10;66.80
62916;DHT22;49010;51.230;-2.306;2022-08-30T01:01:53;17.00;67.20
62916;DHT22;49010;51.230;-2.306;2022-08-30T01:05:36;17.00;67.40
62916;DHT22;49010;51.230;-2.306;2022-08-30T01:09:19;17.00;67.70
62916;DHT22;49010;51.230;-2.306;2022-08-30T01:13:02;16.90;68.00
62916;DHT22;49010;51.230;-2.306;2022-08-30T01:16:44;16.80;68.00
62916;DHT22;49010;51.230;-2.306;2022-08-30T01:20:33;16.80;68.30
62916;DHT22;49010;51.230;-2.306;2022-08-30T01:24:18;16.80;68.50
62916;DHT22;49010;51.230;-2.306;2022-08-30T01:28:05;16.70;68.90
62916;DHT22;49010;51.230;-2.306;2022-08-30T01:31:47;16.70;69.10
62916;DHT22;49010;51.230;-2.306;2022-08-30T01:35:49;16.60;69.10
62916;DHT22;49010;51.230;-2.306;2022-08-30T01:39:34;16.60;68.70
62916;DHT22;49010;51.230;-2.306;2022-08-30T01:43:17;16.50;69.60
62916;DHT22;49010;51.230;-2.306;2022-08-30T01:47:00;16.50;69.80
62916;DHT22;49010;51.230;-2.306;2022-08-30T01:50:42;16.40;69.90
62916;DHT22;49010;51.230;-2.306;2022-08-30T01:54:24;16.40;70.00
62916;DHT22;49010;51.230;-2.306;2022-08-30T01:58:13;16.30;70.20
62916;DHT22;49010;51.230;-2.306;2022-08-30T02:01:55;16.30;70.40
62916;DHT22;49010;51.230;-2.306;2022-08-30T02:05:37;16.20;70.60
62916;DHT22;49010;51.230;-2.306;2022-08-30T02:09:20;16.20;70.80
62916;DHT22;49010;51.230;-2.306;2022-08-30T02:13:01;16.10;70.80
62916;DHT22;49010;51.230;-2.306;2022-08-30T02:16:45;16.10;71.10
62916;DHT22;49010;51.230;-2.306;2022-08-30T02:20:27;16.00;71.30
62916;DHT22;49010;51.230;-2.306;2022-08-30T02:24:09;16.00;71.50
62916;DHT22;49010;51.230;-2.306;2022-08-30T02:27:51;16.00;71.60
62916;DHT22;49010;51.230;-2.306;2022-08-30T02:31:34;15.90;71.80
62916;DHT22;49010;51.230;-2.306;2022-08-30T02:35:16;15.90;71.90
62916;DHT22;49010;51.230;-2.306;2022-08-30T02:38:57;15.80;72.20
62916;DHT22;49010;51.230;-2.306;2022-08-30T02:42:39;15.80;72.40
62916;DHT22;49010;51.230;-2.306;2022-08-30T02:46:22;15.80;72.60
62916;DHT22;49010;51.230;-2.306;2022-08-30T02:50:05;15.70;72.70
62916;DHT22;49010;51.230;-2.306;2022-08-30T02:53:48;15.70;72.80
62916;DHT22;49010;51.230;-2.306;2022-08-30T02:57:30;15.60;72.80
62916;DHT22;49010;51.230;-2.306;2022-08-30T03:01:14;15.60;72.90
62916;DHT22;49010;51.230;-2.306;2022-08-30T03:04:56;15.50;73.00
62916;DHT22;49010;51.230;-2.306;2022-08-30T03:08:38;15.50;73.40
62916;DHT22;49010;51.230;-2.306;2022-08-30T03:12:20;15.40;73.50
62916;DHT22;49010;51.230;-2.306;2022-08-30T03:16:02;15.40;73.70
62916;DHT22;49010;51.230;-2.306;2022-08-30T03:19:45;15.30;73.90
62916;DHT22;49010;51.230;-2.306;2022-08-30T03:23:27;15.30;74.20
62916;DHT22;49010;51.230;-2.306;2022-08-30T03:27:09;15.20;74.30
62916;DHT22;49010;51.230;-2.306;2022-08-30T03:30:51;15.20;74.40
62916;DHT22;49010;51.230;-2.306;2022-08-30T03:34:33;15.20;74.60
62916;DHT22;49010;51.230;-2.306;2022-08-30T03:38:15;15.10;74.70
62916;DHT22;49010;51.230;-2.306;2022-08-30T03:41:57;15.10;75.00
62916;DHT22;49010;51.230;-2.306;2022-08-30T03:45:39;15.00;75.10
62916;DHT22;49010;51.230;-2.306;2022-08-30T03:49:22;15.00;75.30
62916;DHT22;49010;51.230;-2.306;2022-08-30T03:53:05;15.00;75.50
62916;DHT22;49010;51.230;-2.306;2022-08-30T03:56:47;14.90;75.70
62916;DHT22;49010;51.230;-2.306;2022-08-30T04:00:29;14.90;75.80
62916;DHT22;49010;51.230;-2.306;2022-08-30T04:04:11;14.90;76.00
62916;DHT22;49010;51.230;-2.306;2022-08-30T04:07:56;14.80;76.70
62916;DHT22;49010;51.230;-2.306;2022-08-30T04:11:38;14.70;76.30
62916;DHT22;49010;51.230;-2.306;2022-08-30T04:15:20;14.70;76.50
62916;DHT22;49010;51.230;-2.306;2022-08-30T04:19:03;14.70;76.80
62916;DHT22;49010;51.230;-2.306;2022-08-30T04:22:45;14.60;77.40
62916;DHT22;49010;51.230;-2.306;2022-08-30T04:26:26;14.60;77.00
62916;DHT22;49010;51.230;-2.306;2022-08-30T04:30:11;14.50;77.00
62916;DHT22;49010;51.230;-2.306;2022-08-30T04:33:53;14.50;77.30
62916;DHT22;49010;51.230;-2.306;2022-08-30T04:37:37;14.40;77.50
62916;DHT22;49010;51.230;-2.306;2022-08-30T04:41:19;14.40;77.70
62916;DHT22;49010;51.230;-2.306;2022-08-30T04:45:09;14.40;78.00
62916;DHT22;49010;51.230;-2.306;2022-08-30T04:48:51;14.30;78.10
62916;DHT22;49010;51.230;-2.306;2022-08-30T04:52:33;14.30;78.30
62916;DHT22;49010;51.230;-2.306;2022-08-30T04:56:18;14.20;78.60
62916;DHT22;49010;51.230;-2.306;2022-08-30T05:00:05;14.20;78.80
62916;DHT22;49010;51.230;-2.306;2022-08-30T05:03:48;14.20;78.80
62916;DHT22;49010;51.230;-2.306;2022-08-30T05:07:31;14.10;78.90
62916;DHT22;49010;51.230;-2.306;2022-08-30T05:11:15;14.10;79.20
62916;DHT22;49010;51.230;-2.306;2022-08-30T05:14:57;14.10;79.30
62916;DHT22;49010;51.230;-2.306;2022-08-30T05:18:39;14.10;79.30
62916;DHT22;49010;51.230;-2.306;2022-08-30T05:22:21;14.00;79.20
62916;DHT22;49010;51.230;-2.306;2022-08-30T05:26:08;14.00;79.30
62916;DHT22;49010;51.230;-2.306;2022-08-30T05:29:50;14.00;79.40
62916;DHT22;49010;51.230;-2.306;2022-08-30T05:33:32;14.00;79.50
62916;DHT22;49010;51.230;-2.306;2022-08-30T05:37:19;13.90;79.50
62916;DHT22;49010;51.230;-2.306;2022-08-30T05:41:01;13.90;79.60
62916;DHT22;49010;51.230;-2.306;2022-08-30T05:44:52;13.90;79.80
62916;DHT22;49010;51.230;-2.306;2022-08-30T05:48:35;13.90;79.80
62916;DHT22;49010;51.230;-2.306;2022-08-30T05:52:17;13.90;80.00
62916;DHT22;49010;51.230;-2.306;2022-08-30T05:56:01;13.90;79.90
62916;DHT22;49010;51.230;-2.306;2022-08-30T05:59:46;13.90;80.10
62916;DHT22;49010;51.230;-2.306;2022-08-30T06:03:28;13.90;80.30
62916;DHT22;49010;51.230;-2.306;2022-08-30T06:07:13;13.90;80.50
62916;DHT22;49010;51.230;-2.306;2022-08-30T06:10:57;13.90;80.70
62916;DHT22;49010;51.230;-2.306;2022-08-30T06:14:39;13.90;80.90
62916;DHT22;49010;51.230;-2.306;2022-08-30T06:18:21;13.80;81.00
62916;DHT22;49010;51.230;-2.306;2022-08-30T06:22:09;13.90;81.10
62916;DHT22;49010;51.230;-2.306;2022-08-30T06:25:51;13.90;81.10
62916;DHT22;49010;51.230;-2.306;2022-08-30T06:29:33;13.90;81.30
62916;DHT22;49010;51.230;-2.306;2022-08-30T06:33:15;13.90;81.50
62916;DHT22;49010;51.230;-2.306;2022-08-30T06:36:56;14.00;81.70
62916;DHT22;49010;51.230;-2.306;2022-08-30T06:40:38;14.00;81.70
62916;DHT22;49010;51.230;-2.306;2022-08-30T06:44:20;14.00;81.80
62916;DHT22;49010;51.230;-2.306;2022-08-30T06:48:02;14.00;81.90
62916;DHT22;49010;51.230;-2.306;2022-08-30T06:51:44;14.10;82.10
62916;DHT22;49010;51.230;-2.306;2022-08-30T06:55:26;14.10;82.20
62916;DHT22;49010;51.230;-2.306;2022-08-30T06:59:08;14.10;82.20
62916;DHT22;49010;51.230;-2.306;2022-08-30T07:02:50;14.20;82.50
62916;DHT22;49010;51.230;-2.306;2022-08-30T07:06:32;14.30;82.60
62916;DHT22;49010;51.230;-2.306;2022-08-30T07:10:15;14.30;82.70
62916;DHT22;49010;51.230;-2.306;2022-08-30T07:13:57;14.40;82.90
62916;DHT22;49010;51.230;-2.306;2022-08-30T07:17:39;14.40;83.00
62916;DHT22;49010;51.230;-2.306;2022-08-30T07:21:42;14.50;82.90
62916;DHT22;49010;51.230;-2.306;2022-08-30T07:25:24;14.60;82.80
62916;DHT22;49010;51.230;-2.306;2022-08-30T07:29:08;14.70;83.20
62916;DHT22;49010;51.230;-2.306;2022-08-30T07:32:50;14.80;82.90
62916;DHT22;49010;51.230;-2.306;2022-08-30T07:36:33;15.00;82.40
62916;DHT22;49010;51.230;-2.306;2022-08-30T07:40:15;15.10;81.90
62916;DHT22;49010;51.230;-2.306;2022-08-30T07:43:58;15.20;81.60
62916;DHT22;49010;51.230;-2.306;2022-08-30T07:47:40;15.30;81.70
62916;DHT22;49010;51.230;-2.306;2022-08-30T07:51:24;15.40;81.30
62916;DHT22;49010;51.230;-2.306;2022-08-30T07:55:07;15.40;81.00
62916;DHT22;49010;51.230;-2.306;2022-08-30T07:58:50;15.50;80.80
62916;DHT22;49010;51.230;-2.306;2022-08-30T08:02:33;15.70;80.70
62916;DHT22;49010;51.230;-2.306;2022-08-30T08:06:17;15.80;80.50
62916;DHT22;49010;51.230;-2.306;2022-08-30T08:10:00;16.00;80.10
62916;DHT22;49010;51.230;-2.306;2022-08-30T08:13:43;16.20;79.50
62916;DHT22;49010;51.230;-2.306;2022-08-30T08:17:35;16.40;78.70
62916;DHT22;49010;51.230;-2.306;2022-08-30T08:21:17;16.70;77.80
62916;DHT22;49010;51.230;-2.306;2022-08-30T08:24:59;16.90;77.30
62916;DHT22;49010;51.230;-2.306;2022-08-30T08:28:41;17.10;76.80
62916;DHT22;49010;51.230;-2.306;2022-08-30T08:32:23;17.30;75.80
62916;DHT22;49010;51.230;-2.306;2022-08-30T08:36:05;17.70;75.10
62916;DHT22;49010;51.230;-2.306;2022-08-30T08:39:55;18.00;74.20
62916;DHT22;49010;51.230;-2.306;2022-08-30T08:43:38;18.20;73.00
62916;DHT22;49010;51.230;-2.306;2022-08-30T08:47:37;18.20;72.20
62916;DHT22;49010;51.230;-2.306;2022-08-30T08:51:25;18.30;72.20
62916;DHT22;49010;51.230;-2.306;2022-08-30T08:55:27;18.30;72.10
62916;DHT22;49010;51.230;-2.306;2022-08-30T08:59:11;18.30;72.40
62916;DHT22;49010;51.230;-2.306;2022-08-30T09:03:00;18.40;72.60
62916;DHT22;49010;51.230;-2.306;2022-08-30T09:07:30;18.60;71.50
62916;DHT22;49010;51.230;-2.306;2022-08-30T09:11:03;18.80;71.00
62916;DHT22;49010;51.230;-2.306;2022-08-30T09:14:50;19.10;70.30
62916;DHT22;49010;51.230;-2.306;2022-08-30T09:18:45;19.20;69.90
62916;DHT22;49010;51.230;-2.306;2022-08-30T09:22:39;19.30;69.90
62916;DHT22;49010;51.230;-2.306;2022-08-30T09:26:29;19.50;69.40
62916;DHT22;49010;51.230;-2.306;2022-08-30T09:30:16;19.70;69.30
62916;DHT22;49010;51.230;-2.306;2022-08-30T09:34:04;20.10;67.60
62916;DHT22;49010;51.230;-2.306;2022-08-30T09:37:56;20.40;66.00
62916;DHT22;49010;51.230;-2.306;2022-08-30T09:41:42;20.60;65.70
62916;DHT22;49010;51.230;-2.306;2022-08-30T09:45:31;20.70;64.50
62916;DHT22;49010;51.230;-2.306;2022-08-30T09:53:16;21.30;63.20
62916;DHT22;49010;51.230;-2.306;2022-08-30T09:57:28;21.70;61.80
62916;DHT22;49010;51.230;-2.306;2022-08-30T10:01:21;22.50;60.30
62916;DHT22;49010;51.230;-2.306;2022-08-30T10:22:10;25.70;51.70
62916;DHT22;49010;51.230;-2.306;2022-08-30T10:29:50;25.90;50.10
62916;DHT22;49010;51.230;-2.306;2022-08-30T10:33:41;26.00;50.00
62916;DHT22;49010;51.230;-2.306;2022-08-30T10:37:30;26.00;49.40
62916;DHT22;49010;51.230;-2.306;2022-08-30T10:45:15;25.60;51.80
62916;DHT22;49010;51.230;-2.306;2022-08-30T10:49:00;25.50;50.00
62916;DHT22;49010;51.230;-2.306;2022-08-30T10:52:53;25.30;50.50
62916;DHT22;49010;51.230;-2.306;2022-08-30T10:56:39;25.20;51.00
62916;DHT22;49010;51.230;-2.306;2022-08-30T11:00:59;25.40;50.10
62916;DHT22;49010;51.230;-2.306;2022-08-30T11:12:41;25.80;48.90
62916;DHT22;49010;51.230;-2.306;2022-08-30T11:16:39;25.60;50.60
62916;DHT22;49010;51.230;-2.306;2022-08-30T11:24:22;25.80;50.20
62916;DHT22;49010;51.230;-2.306;2022-08-30T11:28:04;25.90;49.10
62916;DHT22;49010;51.230;-2.306;2022-08-30T11:31:46;25.70;49.10
62916;DHT22;49010;51.230;-2.306;2022-08-30T11:35:39;25.50;49.80
62916;DHT22;49010;51.230;-2.306;2022-08-30T11:47:47;24.80;51.10
62916;DHT22;49010;51.230;-2.306;2022-08-30T12:03:43;24.70;53.30
62916;DHT22;49010;51.230;-2.306;2022-08-30T12:07:58;24.50;51.40
62916;DHT22;49010;51.230;-2.306;2022-08-30T12:11:54;24.40;52.40
62916;DHT22;49010;51.230;-2.306;2022-08-30T12:16:01;24.10;51.90
62916;DHT22;49010;51.230;-2.306;2022-08-30T12:19:44;24.00;52.50
62916;DHT22;49010;51.230;-2.306;2022-08-30T12:25:00;23.90;52.20
62916;DHT22;49010;51.230;-2.306;2022-08-30T12:28:24;24.00;52.90
62916;DHT22;49010;51.230;-2.306;2022-08-30T12:32:16;24.00;52.30
62916;DHT22;49010;51.230;-2.306;2022-08-30T12:36:03;24.00;52.30
62916;DHT22;49010;51.230;-2.306;2022-08-30T12:39:46;24.10;52.20
62916;DHT22;49010;51.230;-2.306;2022-08-30T12:43:37;24.00;51.80
62916;DHT22;49010;51.230;-2.306;2022-08-30T12:47:30;24.10;51.90
62916;DHT22;49010;51.230;-2.306;2022-08-30T12:51:45;24.10;51.60
62916;DHT22;49010;51.230;-2.306;2022-08-30T12:55:31;24.00;52.40
62916;DHT22;49010;51.230;-2.306;2022-08-30T12:59:43;24.00;51.60
62916;DHT22;49010;51.230;-2.306;2022-08-30T13:03:35;24.10;52.00
62916;DHT22;49010;51.230;-2.306;2022-08-30T13:07:32;24.40;50.70
62916;DHT22;49010;51.230;-2.306;2022-08-30T13:11:22;24.60;51.00
62916;DHT22;49010;51.230;-2.306;2022-08-30T13:15:18;24.90;49.60
62916;DHT22;49010;51.230;-2.306;2022-08-30T13:23:08;25.00;50.00
62916;DHT22;49010;51.230;-2.306;2022-08-30T13:26:53;24.90;49.30
62916;DHT22;49010;51.230;-2.306;2022-08-30T13:30:36;24.90;49.20
62916;DHT22;49010;51.230;-2.306;2022-08-30T13:34:18;24.90;49.20
62916;DHT22;49010;51.230;-2.306;2022-08-30T13:38:03;25.00;48.70
62916;DHT22;49010;51.230;-2.306;2022-08-30T13:41:44;24.90;48.80
62916;DHT22;49010;51.230;-2.306;2022-08-30T13:45:27;24.90;49.30
62916;DHT22;49010;51.230;-2.306;2022-08-30T13:49:31;24.90;49.30
62916;DHT22;49010;51.230;-2.306;2022-08-30T13:53:31;24.90;49.20
62916;DHT22;49010;51.230;-2.306;2022-08-30T13:57:33;24.90;49.10
62916;DHT22;49010;51.230;-2.306;2022-08-30T14:01:35;24.90;48.60
62916;DHT22;49010;51.230;-2.306;2022-08-30T14:05:38;25.00;48.70
62916;DHT22;49010;51.230;-2.306;2022-08-30T14:09:40;25.10;48.40
62916;DHT22;49010;51.230;-2.306;2022-08-30T14:13:23;25.20;48.30
62916;DHT22;49010;51.230;-2.306;2022-08-30T14:17:08;25.20;48.00
62916;DHT22;49010;51.230;-2.306;2022-08-30T14:20:50;25.20;48.40
62916;DHT22;49010;51.230;-2.306;2022-08-30T14:24:32;25.10;48.20
62916;DHT22;49010;51.230;-2.306;2022-08-30T14:28:15;25.20;48.00
62916;DHT22;49010;51.230;-2.306;2022-08-30T14:31:57;25.20;47.80
62916;DHT22;49010;51.230;-2.306;2022-08-30T14:35:41;25.10;48.40
62916;DHT22;49010;51.230;-2.306;2022-08-30T14:39:23;25.10;48.40
62916;DHT22;49010;51.230;-2.306;2022-08-30T14:43:05;25.20;47.80
62916;DHT22;49010;51.230;-2.306;2022-08-30T14:46:47;25.30;47.70
62916;DHT22;49010;51.230;-2.306;2022-08-30T14:50:31;25.90;46.90
62916;DHT22;49010;51.230;-2.306;2022-08-30T14:54:19;26.20;45.80
62916;DHT22;49010;51.230;-2.306;2022-08-30T14:58:01;26.10;45.50
62916;DHT22;49010;51.230;-2.306;2022-08-30T15:01:45;26.00;46.20
62916;DHT22;49010;51.230;-2.306;2022-08-30T15:05:27;25.80;47.00
62916;DHT22;49010;51.230;-2.306;2022-08-30T15:09:11;25.70;46.60
62916;DHT22;49010;51.230;-2.306;2022-08-30T15:12:54;25.80;46.60
62916;DHT22;49010;51.230;-2.306;2022-08-30T15:16:37;25.90;46.40
62916;DHT22;49010;51.230;-2.306;2022-08-30T15:20:19;25.90;46.60
62916;DHT22;49010;51.230;-2.306;2022-08-30T15:24:03;25.80;47.10
62916;DHT22;49010;51.230;-2.306;2022-08-30T15:27:46;25.60;46.60
62916;DHT22;49010;51.230;-2.306;2022-08-30T15:31:29;25.60;46.50
62916;DHT22;49010;51.230;-2.306;2022-08-30T15:35:12;25.50;47.00
62916;DHT22;49010;51.230;-2.306;2022-08-30T15:38:54;26.00;46.30
62916;DHT22;49010;51.230;-2.306;2022-08-30T15:42:36;26.30;45.30
62916;DHT22;49010;51.230;-2.306;2022-08-30T15:46:24;26.30;45.30
62916;DHT22;49010;51.230;-2.306;2022-08-30T15:50:10;26.20;45.50
62916;DHT22;49010;51.230;-2.306;2022-08-30T15:53:52;26.00;45.40
62916;DHT22;49010;51.230;-2.306;2022-08-30T15:57:34;25.90;46.20
62916;DHT22;49010;51.230;-2.306;2022-08-30T16:01:16;25.90;45.80
62916;DHT22;49010;51.230;-2.306;2022-08-30T16:05:03;25.80;45.80
62916;DHT22;49010;51.230;-2.306;2022-08-30T16:08:47;25.80;45.60
62916;DHT22;49010;51.230;-2.306;2022-08-30T16:12:29;25.70;46.10
62916;DHT22;49010;51.230;-2.306;2022-08-30T16:16:11;25.60;46.50
62916;DHT22;49010;51.230;-2.306;2022-08-30T16:19:53;25.60;45.90
62916;DHT22;49010;51.230;-2.306;2022-08-30T16:23:40;25.60;46.10
62916;DHT22;49010;51.230;-2.306;2022-08-30T16:27:23;25.70;48.10
62916;DHT22;49010;51.230;-2.306;2022-08-30T16:31:05;25.80;46.50
62916;DHT22;49010;51.230;-2.306;2022-08-30T16:34:48;25.80;46.30
62916;DHT22;49010;51.230;-2.306;2022-08-30T16:38:31;25.80;45.70
62916;DHT22;49010;51.230;-2.306;2022-08-30T16:42:13;25.90;46.20
62916;DHT22;49010;51.230;-2.306;2022-08-30T16:46:04;25.80;45.50
62916;DHT22;49010;51.230;-2.306;2022-08-30T16:49:47;25.70;46.20
62916;DHT22;49010;51.230;-2.306;2022-08-30T16:53:30;25.70;45.40
62916;DHT22;49010;51.230;-2.306;2022-08-30T16:57:12;25.60;45.80
62916;DHT22;49010;51.230;-2.306;2022-08-30T17:00:54;25.50;46.00
62916;DHT22;49010;51.230;-2.306;2022-08-30T17:04:36;25.40;45.90
62916;DHT22;49010;51.230;-2.306;2022-08-30T17:08:18;25.40;45.70
62916;DHT22;49010;51.230;-2.306;2022-08-30T17:12:00;25.40;45.60
62916;DHT22;49010;51.230;-2.306;2022-08-30T17:15:44;25.30;46.20
62916;DHT22;49010;51.230;-2.306;2022-08-30T17:19:28;25.40;45.80
62916;DHT22;49010;51.230;-2.306;2022-08-30T17:23:11;25.40;45.80
62916;DHT22;49010;51.230;-2.306;2022-08-30T17:26:53;25.50;46.00
62916;DHT22;49010;51.230;-2.306;2022-08-30T17:30:35;25.50;46.00
62916;DHT22;49010;51.230;-2.306;2022-08-30T17:34:19;25.60;45.50
62916;DHT22;49010;51.230;-2.306;2022-08-30T17:38:02;25.50;45.60
62916;DHT22;49010;51.230;-2.306;2022-08-30T17:41:44;25.40;45.50
62916;DHT22;49010;51.230;-2.306;2022-08-30T17:45:32;25.40;46.20
62916;DHT22;49010;51.230;-2.306;2022-08-30T17:49:14;25.30;45.80
62916;DHT22;49010;51.230;-2.306;2022-08-30T17:52:56;25.20;46.40
62916;DHT22;49010;51.230;-2.306;2022-08-30T17:56:42;25.10;46.10
62916;DHT22;49010;51.230;-2.306;2022-08-30T18:00:24;25.00;47.00
62916;DHT22;49010;51.230;-2.306;2022-08-30T18:04:06;24.80;46.80
62916;DHT22;49010;51.230;-2.306;2022-08-30T18:07:48;24.70;47.20
62916;DHT22;49010;51.230;-2.306;2022-08-30T18:11:30;24.50;47.50
62916;DHT22;49010;51.230;-2.306;2022-08-30T18:15:12;24.40;47.90
62916;DHT22;49010;51.230;-2.306;2022-08-30T18:18:56;24.30;48.20
62916;DHT22;49010;51.230;-2.306;2022-08-30T18:22:38;24.20;48.50
62916;DHT22;49010;51.230;-2.306;2022-08-30T18:26:21;24.10;48.80
62916;DHT22;49010;51.230;-2.306;2022-08-30T18:30:06;24.00;48.90
62916;DHT22;49010;51.230;-2.306;2022-08-30T18:33:52;23.90;49.30
62916;DHT22;49010;51.230;-2.306;2022-08-30T18:37:34;23.90;49.50
62916;DHT22;49010;51.230;-2.306;2022-08-30T18:41:16;23.80;50.30
62916;DHT22;49010;51.230;-2.306;2022-08-30T18:44:58;23.70;50.60
62916;DHT22;49010;51.230;-2.306;2022-08-30T18:48:52;23.60;50.80
62916;DHT22;49010;51.230;-2.306;2022-08-30T18:52:34;23.40;51.40
62916;DHT22;49010;51.230;-2.306;2022-08-30T18:56:16;23.30;51.80
62916;DHT22;49010;51.230;-2.306;2022-08-30T18:59:58;23.10;52.70
62916;DHT22;49010;51.230;-2.306;2022-08-30T19:03:40;23.00;52.50
62916;DHT22;49010;51.230;-2.306;2022-08-30T19:07:23;22.80;52.70
62916;DHT22;49010;51.230;-2.306;2022-08-30T19:11:15;22.70;53.20
62916;DHT22;49010;51.230;-2.306;2022-08-30T19:14:57;22.60;53.50
62916;DHT22;49010;51.230;-2.306;2022-08-30T19:18:40;22.40;53.60
62916;DHT22;49010;51.230;-2.306;2022-08-30T19:22:22;22.40;54.00
62916;DHT22;49010;51.230;-2.306;2022-08-30T19:26:11;22.20;54.30
62916;DHT22;49010;51.230;-2.306;2022-08-30T19:29:54;22.10;54.60
62916;DHT22;49010;51.230;-2.306;2022-08-30T19:33:38;22.00;54.90
62916;DHT22;49010;51.230;-2.306;2022-08-30T19:37:21;21.90;55.10
62916;DHT22;49010;51.230;-2.306;2022-08-30T19:41:04;21.90;55.40
62916;DHT22;49010;51.230;-2.306;2022-08-30T19:44:49;21.80;55.70
62916;DHT22;49010;51.230;-2.306;2022-08-30T19:48:32;21.70;56.00
62916;DHT22;49010;51.230;-2.306;2022-08-30T19:52:20;21.60;56.10
62916;DHT22;49010;51.230;-2.306;2022-08-30T19:56:02;21.50;56.50
62916;DHT22;49010;51.230;-2.306;2022-08-30T19:59:44;21.40;56.70
62916;DHT22;49010;51.230;-2.306;2022-08-30T20:03:26;21.30;57.00
62916;DHT22;49010;51.230;-2.306;2022-08-30T20:07:09;21.30;57.30
62916;DHT22;49010;51.230;-2.306;2022-08-30T20:10:51;21.20;57.50
62916;DHT22;49010;51.230;-2.306;2022-08-30T20:14:33;21.10;57.60
62916;DHT22;49010;51.230;-2.306;2022-08-30T20:18:15;21.00;58.00
62916;DHT22;49010;51.230;-2.306;2022-08-30T20:21:57;21.00;58.20
62916;DHT22;49010;51.230;-2.306;2022-08-30T20:25:50;21.00;58.40
62916;DHT22;49010;51.230;-2.306;2022-08-30T20:29:32;20.90;58.80
62916;DHT22;49010;51.230;-2.306;2022-08-30T20:33:15;20.80;59.00
62916;DHT22;49010;51.230;-2.306;2022-08-30T20:36:57;20.80;59.10
62916;DHT22;49010;51.230;-2.306;2022-08-30T20:40:39;20.70;59.20
62916;DHT22;49010;51.230;-2.306;2022-08-30T20:44:22;20.60;59.50
62916;DHT22;49010;51.230;-2.306;2022-08-30T20:48:04;20.60;59.80
62916;DHT22;49010;51.230;-2.306;2022-08-30T20:51:47;20.50;60.00
62916;DHT22;49010;51.230;-2.306;2022-08-30T20:55:33;20.50;60.20
62916;DHT22;49010;51.230;-2.306;2022-08-30T20:59:15;20.40;60.20
62916;DHT22;49010;51.230;-2.306;2022-08-30T21:02:57;20.30;60.70
62916;DHT22;49010;51.230;-2.306;2022-08-30T21:06:39;20.20;60.80
62916;DHT22;49010;51.230;-2.306;2022-08-30T21:10:21;20.10;61.10
62916;DHT22;49010;51.230;-2.306;2022-08-30T21:14:04;20.00;61.60
62916;DHT22;49010;51.230;-2.306;2022-08-30T21:17:46;20.00;62.10
62916;DHT22;49010;51.230;-2.306;2022-08-30T21:21:28;19.90;62.60
62916;DHT22;49010;51.230;-2.306;2022-08-30T21:25:12;19.90;63.00
62916;DHT22;49010;51.230;-2.306;2022-08-30T21:28:54;19.80;63.30
62916;DHT22;49010;51.230;-2.306;2022-08-30T21:32:36;19.80;63.60
62916;DHT22;49010;51.230;-2.306;2022-08-30T21:36:19;19.70;64.00
62916;DHT22;49010;51.230;-2.306;2022-08-30T21:40:20;19.60;64.60
62916;DHT22;49010;51.230;-2.306;2022-08-30T21:44:09;19.60;65.10
62916;DHT22;49010;51.230;-2.306;2022-08-30T21:47:51;19.50;65.50
62916;DHT22;49010;51.230;-2.306;2022-08-30T21:51:38;19.50;66.00
62916;DHT22;49010;51.230;-2.306;2022-08-30T21:55:20;19.50;66.40
62916;DHT22;49010;51.230;-2.306;2022-08-30T21:59:04;19.40;66.50
62916;DHT22;49010;51.230;-2.306;2022-08-30T22:02:46;19.40;66.80
62916;DHT22;49010;51.230;-2.306;2022-08-30T22:06:35;19.40;67.00
62916;DHT22;49010;51.230;-2.306;2022-08-30T22:10:18;19.30;67.20
62916;DHT22;49010;51.230;-2.306;2022-08-30T22:14:04;19.30;67.30
62916;DHT22;49010;51.230;-2.306;2022-08-30T22:17:47;19.20;67.50
62916;DHT22;49010;51.230;-2.306;2022-08-30T22:21:31;19.20;67.70
62916;DHT22;49010;51.230;-2.306;2022-08-30T22:25:13;19.10;67.90
62916;DHT22;49010;51.230;-2.306;2022-08-30T22:28:56;19.10;68.80
62916;DHT22;49010;51.230;-2.306;2022-08-30T22:32:38;19.00;68.50
62916;DHT22;49010;51.230;-2.306;2022-08-30T22:36:27;19.00;68.80
62916;DHT22;49010;51.230;-2.306;2022-08-30T22:40:13;18.90;69.10
62916;DHT22;49010;51.230;-2.306;2022-08-30T22:43:55;18.90;69.50
62916;DHT22;49010;51.230;-2.306;2022-08-30T22:47:37;18.80;69.30
62916;DHT22;49010;51.230;-2.306;2022-08-30T22:51:20;18.80;69.70
62916;DHT22;49010;51.230;-2.306;2022-08-30T22:55:03;18.80;69.90
62916;DHT22;49010;51.230;-2.306;2022-08-30T22:58:45;18.80;70.30
62916;DHT22;49010;51.230;-2.306;2022-08-30T23:02:27;18.70;70.30
62916;DHT22;49010;51.230;-2.306;2022-08-30T23:06:09;18.70;70.60
62916;DHT22;49010;51.230;-2.306;2022-08-30T23:09:51;18.70;71.00
62916;DHT22;49010;51.230;-2.306;2022-08-30T23:13:33;18.60;71.10
62916;DHT22;49010;51.230;-2.306;2022-08-30T23:17:15;18.60;71.30
62916;DHT22;49010;51.230;-2.306;2022-08-30T23:21:05;18.60;71.20
62916;DHT22;49010;51.230;-2.306;2022-08-30T23:24:51;18.50;71.00
62916;DHT22;49010;51.230;-2.306;2022-08-30T23:28:56;18.50;71.40
62916;DHT22;49010;51.230;-2.306;2022-08-30T23:32:57;18.40;71.40
62916;DHT22;49010;51.230;-2.306;2022-08-30T23:36:57;18.30;71.70
62916;DHT22;49010;51.230;-2.306;2022-08-30T23:40:58;18.30;71.90
62916;DHT22;49010;51.230;-2.306;2022-08-30T23:44:58;18.20;72.20
62916;DHT22;49010;51.230;-2.306;2022-08-30T23:48:58;18.10;72.40
62916;DHT22;49010;51.230;-2.306;2022-08-30T23:52:59;18.10;72.50
62916;DHT22;49010;51.230;-2.306;2022-08-30T23:57:00;18.00;72.90
